Have a Safe July 4th! 

Flight Track Log - Related Links

Times and Time Zones

All times are in EDT time to prevent confusion due to time zone crossing. See the N58BC flight status page for this flight to view local times or setup timezone preferences in your user account.

Time Position Orientation Groundspeed Altitude Reporting Facility
EDT Latitude Longitude Course Direction KTS MPH feet Rate Location/Type
Sun 09:58:02 AM 38.7636 -97.6442 167° South 116 133 2,300  Level Kansas City Center
Sun 09:59:04 AM 38.7339 -97.6369 169° South 114 131 3,600 1,381 Climbing Kansas City Center
Sun 10:00:08 AM 38.7003 -97.6214 160° South 114 131 5,200 1,333 Climbing Kansas City Center
Sun 10:01:10 AM 38.6661 -97.6053 160° South 125 144 6,400 823 Climbing Kansas City Center
Sun 10:02:00 AM 38.3915 -97.5258 167° South  Level FlightAware Approximate
Sun 10:02:12 AM 38.6217 -97.5950 170° South 161 185 6,900  Level Kansas City Center
Sun 10:03:00 AM 38.3258 -97.5061 167° South  Level FlightAware Approximate
Sun 10:03:14 AM 38.5714 -97.5886 174° South 180 207 8,000  Level Kansas City Center
Sun 10:04:16 AM 38.5250 -97.5847 176° South 169 194 9,500 1,355 Climbing Kansas City Center
Sun 10:05:18 AM 38.4792 -97.5758 171° South 165 190 10,800 1,258 Climbing Kansas City Center
Sun 10:06:20 AM 38.4367 -97.5628 166° South 159 183 12,100 1,306 Climbing Kansas City Center
Sun 10:07:22 AM 38.3925 -97.5517 169° South 160 184 13,500 1,403 Climbing Kansas City Center
Sun 10:08:24 AM 38.3422 -97.5414 171° South 153 176 15,000 1,403 Climbing Kansas City Center
Sun 10:09:26 AM 38.3003 -97.5350 173° South 151 174 16,400 1,258 Climbing Kansas City Center
Sun 10:10:28 AM 38.2589 -97.5292 174° South 150 173 17,600 1,161 Climbing Kansas City Center
Sun 10:11:30 AM 38.2250 -97.5147 161° South 131 151 18,800 1,016 Climbing Kansas City Center
Sun 10:12:32 AM 38.1892 -97.4983 160° South 135 155 19,700 532 Climbing Kansas City Center
Sun 10:13:34 AM 38.1458 -97.4656 149° Southeast 186 214 19,900 145 Climbing Kansas City Center
Sun 10:14:36 AM 38.0914 -97.4428 162° South 204 235 20,000  Climbing Kansas City Center
Sun 10:15:38 AM 38.0194 -97.4225 167° South 220 253 19,900  Descending Kansas City Center
Sun 10:16:40 AM 37.9558 -97.4047 168° South 232 267 20,000 48 Climbing Kansas City Center
Sun 10:17:42 AM 37.8928 -97.3864 167° South 231 266 20,000  Level Kansas City Center
Sun 10:18:44 AM 37.8292 -97.3689 168° South 234 269 20,000  Level Kansas City Center
Sun 10:19:47 AM 37.7647 -97.3503 167° South 236 272 20,000  Level Kansas City Center
Sun 10:20:48 AM 37.6994 -97.3311 167° South 239 275 20,000  Level Kansas City Center
Sun 10:21:50 AM 37.6347 -97.3136 168° South 238 274 20,000  Level Kansas City Center
Sun 10:22:52 AM 37.5561 -97.2903 167° South 240 276 20,000 242 Level Kansas City Center
Sun 10:23:54 AM 37.4917 -97.2725 168° South 236 272 20,500 774 Climbing Kansas City Center
Sun 10:24:56 AM 37.4375 -97.2567 167° South 200 230 21,600 1,016 Climbing Kansas City Center
Sun 10:25:58 AM 37.3867 -97.2408 166° South 187 215 22,600 677 Climbing Kansas City Center
Sun 10:27:00 AM 37.3333 -97.2272 169° South 192 221 23,000 194 Climbing Kansas City Center
Sun 10:28:02 AM 37.2731 -97.2128 169° South 212 244 23,000  Level Kansas City Center
Sun 10:29:04 AM 37.2081 -97.1947 168° South 234 269 23,000  Level Kansas City Center
Sun 10:30:06 AM 37.1269 -97.1725 168° South 245 282 23,000  Level Kansas City Center
Sun 10:31:08 AM 37.0617 -97.1506 165° South 245 282 23,000  Level Kansas City Center
Sun 10:32:10 AM 36.9936 -97.1328 168° South 248 285 23,000  Level Kansas City Center
Sun 10:33:12 AM 36.9264 -97.1139 167° South 248 285 23,000  Level Kansas City Center
Sun 10:34:14 AM 36.8592 -97.0969 169° South 247 284 23,000  Level Kansas City Center
Sun 10:35:16 AM 36.7814 -97.0756 168° South 246 283 23,000  Level Kansas City Center
Sun 10:36:18 AM 36.7153 -97.0581 168° South 245 282 23,000  Level Kansas City Center
Sun 10:37:20 AM 36.6461 -97.0389 167° South 250 288 23,000  Level Kansas City Center
Sun 10:38:22 AM 36.5792 -97.0217 168° South 249 287 23,000  Level Kansas City Center
Sun 10:39:24 AM 36.5028 -96.9986 166° South 247 284 23,000  Level Kansas City Center
Sun 10:40:26 AM 36.4339 -96.9814 169° South 250 288 23,000  Level Kansas City Center
Sun 10:41:28 AM 36.3653 -96.9625 168° South 252 290 23,000  Level Kansas City Center
Sun 10:42:30 AM 36.2964 -96.9450 168° South 252 290 23,000  Level Kansas City Center
Sun 10:43:32 AM 36.2267 -96.9258 167° South 255 293 23,000  Level Kansas City Center
Sun 10:44:34 AM 36.1575 -96.9064 167° South 254 292 23,000  Level Kansas City Center
Sun 10:45:36 AM 36.0739 -96.8847 168° South 255 293 23,000  Level Kansas City Center
Sun 10:46:38 AM 36.0061 -96.8664 168° South 252 290 23,000  Level Kansas City Center
Sun 10:47:40 AM 35.9375 -96.8475 167° South 253 291 23,000  Level Kansas City Center
Sun 10:48:42 AM 35.8669 -96.8292 168° South 255 293 23,000  Level Kansas City Center
Sun 10:49:44 AM 35.7981 -96.8089 167° South 255 293 23,000  Level Kansas City Center
Sun 10:50:46 AM 35.7281 -96.7914 169° South 256 295 23,000  Level Kansas City Center
Sun 10:51:48 AM 35.6589 -96.7717 167° South 254 292 23,000  Level Kansas City Center
Sun 10:52:50 AM 35.5744 -96.7489 168° South 256 295 23,000  Level Kansas City Center
Sun 10:53:52 AM 35.5042 -96.7314 169° South 257 296 23,000  Level Kansas City Center
Sun 10:55:06 AM 35.4167 -96.7106 169° South 256 295 23,000  Level Fort Worth Center
Sun 10:56:06 AM 35.3458 -96.6908 167° South 256 295 23,000  Level Fort Worth Center
Sun 10:57:06 AM 35.2769 -96.6736 168° South 256 295 23,000  Level Fort Worth Center
Sun 10:58:06 AM 35.2081 -96.6614 172° South 256 295 23,000  Level Fort Worth Center
Sun 10:59:06 AM 35.1369 -96.6569 177° South 256 295 23,000  Level Fort Worth Center
Sun 11:00:06 AM 35.0681 -96.6550 179° South 256 295 23,000  Level Fort Worth Center
Sun 11:01:06 AM 34.9972 -96.6506 177° South 256 295 23,000  Level Fort Worth Center
Sun 11:02:06 AM 34.9242 -96.6489 179° South 256 295 23,000  Level Fort Worth Center
Sun 11:03:06 AM 34.8533 -96.6419 175° South 256 295 23,000  Level Fort Worth Center
Sun 11:04:06 AM 34.7822 -96.6400 179° South 256 295 23,000  Level Fort Worth Center
Sun 11:05:06 AM 34.7092 -96.6356 177° South 256 295 23,000  Level Fort Worth Center
Sun 11:06:06 AM 34.6403 -96.6311 177° South 256 295 23,000  Level Fort Worth Center
Sun 11:07:06 AM 34.5672 -96.6292 179° South 256 295 23,000  Level Fort Worth Center
Sun 11:08:06 AM 34.4964 -96.6247 177° South 251 289 23,000  Level Fort Worth Center
Sun 11:09:06 AM 34.4275 -96.6203 177° South 251 289 23,000  Level Fort Worth Center
Sun 11:10:06 AM 34.3567 -96.6161 177° South 251 289 23,000  Level Fort Worth Center
Sun 11:11:06 AM 34.2836 -96.6142 179° South 251 289 23,000  Level Fort Worth Center
Sun 11:12:06 AM 34.2125 -96.6097 177° South 251 289 23,000  Level Fort Worth Center
Sun 11:13:06 AM 34.1436 -96.6056 177° South 251 289 23,000  Level Fort Worth Center
Sun 11:14:06 AM 34.0853 -96.5986 174° South 251 289 23,000  Level Fort Worth Center
Sun 11:15:06 AM 34.0142 -96.5967 179° South 251 289 23,000  Level Fort Worth Center
Sun 11:16:06 AM 33.9453 -96.5922 177° South 251 289 23,000  Level Fort Worth Center
Sun 11:17:06 AM 33.8744 -96.5878 177° South 251 289 23,000  Level Fort Worth Center
Sun 11:18:06 AM 33.7950 -96.5861 179° South 251 289 23,000  Level Fort Worth Center
Sun 11:19:06 AM 33.7239 -96.5819 177° South 256 295 23,000  Level Fort Worth Center
Sun 11:20:06 AM 33.6531 -96.5800 179° South 251 289 23,000  Level Fort Worth Center
Sun 11:21:06 AM 33.5842 -96.5756 177° South 251 289 23,000  Level Fort Worth Center
Sun 11:22:06 AM 33.5131 -96.5714 177° South 251 289 23,000  Level Fort Worth Center
Sun 11:23:06 AM 33.4442 -96.5669 177° South 251 289 23,000  Level Fort Worth Center
Sun 11:25:06 AM 33.3022 -96.5608 178° South 251 289 23,000  Level Fort Worth Center
Sun 11:26:06 AM 33.2333 -96.5567 177° South 251 289 23,000  Level Fort Worth Center
Sun 11:27:06 AM 33.1622 -96.5522 177° South 251 289 23,000  Level Fort Worth Center
Sun 11:28:06 AM 33.0933 -96.5481 177° South 251 289 23,000  Level Fort Worth Center
Sun 11:29:06 AM 33.0203 -96.5439 177° South 256 295 23,000  Level Fort Worth Center
Sun 11:30:06 AM 32.9472 -96.5419 179° South 256 295 23,000  Level Fort Worth Center
Sun 11:31:06 AM 32.8742 -96.5378 177° South 265 305 23,000  Level Fort Worth Center
Sun 11:32:06 AM 32.8117 -96.5358 179° South 265 305 23,000  Level Fort Worth Center
Sun 11:33:06 AM 32.7342 -96.5317 177° South 265 305 23,000  Level Fort Worth Center
Sun 11:34:06 AM 32.6717 -96.5300 179° South 255 293 23,000  Level Fort Worth Center
Sun 11:35:06 AM 32.5944 -96.5258 177° South 255 293 23,000  Level Fort Worth Center
Sun 11:36:06 AM 32.5317 -96.5214 177° South 255 293 23,000  Level Fort Worth Center
Sun 11:37:06 AM 32.4522 -96.5172 177° South 255 293 23,000  Level Fort Worth Center
Sun 11:38:06 AM 32.3875 -96.5131 177° South 260 299 23,000  Level Fort Worth Center
Sun 11:39:07 AM 32.3125 -96.5111 179° South 260 299 23,000  Level Fort Worth Center
Sun 11:40:06 AM 32.2478 -96.5069 177° South 254 292 23,000  Level Fort Worth Center
Sun 11:41:06 AM 32.1683 -96.5028 177° South 254 292 23,000  Level Fort Worth Center
Sun 11:42:06 AM 32.0994 -96.4961 175° South 254 292 23,000  Level Fort Worth Center
Sun 11:43:06 AM 32.0264 -96.4944 179° South 254 292 23,000  Level Fort Worth Center
Sun 11:44:06 AM 31.9572 -96.4903 177° South 254 292 23,000  Level Fort Worth Center
Sun 11:45:06 AM 31.8842 -96.4886 179° South 254 292 23,000  Level Fort Worth Center
Sun 11:46:06 AM 31.8153 -96.4844 177° South 254 292 23,000  Level Fort Worth Center
Sun 11:47:34 AM 31.7144 -96.4783 177° South 253 291 23,000  Level Houston Center
Sun 11:48:36 AM 31.6422 -96.4739 177° South 257 296 23,000  Level Houston Center
Sun 11:49:38 AM 31.5717 -96.4697 177° South 253 291 23,000  Level Houston Center
Sun 11:50:40 AM 31.4992 -96.4667 178° South 256 295 23,000  Level Houston Center
Sun 11:51:42 AM 31.4275 -96.4628 177° South 255 293 23,000  Level Houston Center
Sun 11:52:44 AM 31.3544 -96.4592 178° South 255 293 23,000  Level Houston Center
Sun 11:53:46 AM 31.2719 -96.4544 177° South 256 295 23,000  Level Houston Center
Sun 11:54:48 AM 31.2008 -96.4511 178° South 253 291 23,000  Level Houston Center
Sun 11:55:51 AM 31.1283 -96.4478 178° South 255 293 23,000  Level Houston Center
Sun 11:56:53 AM 31.0564 -96.4439 177° South 256 295 23,000 -48 Level Houston Center
Sun 11:57:55 AM 30.9831 -96.4408 178° South 259 298 22,900 -273 Descending Houston Center
Sun 11:58:43 AM 30.9175 -96.4392 179° South 260 299 22,500 -692 Descending Houston Center
Sun 11:59:39 AM 30.8522 -96.4367 178° South 261 300 21,700 -865 Descending Houston Center
Sun 12:00:34 PM 30.7825 -96.4319 177° South 261 300 20,900 -934 Descending Houston Center
Sun 12:01:41 PM 30.7006 -96.4289 178° South 260 299 19,800 -891 Descending Houston Center
Sun 12:02:42 PM 30.6331 -96.4244 177° South 257 296 19,000 -885 Descending Houston Center
Sun 12:03:43 PM 30.5697 -96.3950 158° South 239 275 18,000 -885 Descending Houston Center
Sun 12:04:44 PM 30.5164 -96.3597 150° Southeast 236 272 17,200 -1,179 Descending Houston Center
Sun 12:05:40 PM 30.4519 -96.3403 165° South 238 274 15,700 -1,586 Descending Houston Center
Sun 12:06:11 PM 30.4275 -96.3300 160° South 233 268 14,900 -2,066 Descending Houston Center
Sun 12:06:41 PM 30.3933 -96.3178 163° South 217 250 13,600 -2,226 Descending Houston Center
Sun 12:07:13 PM 30.3697 -96.3094 163° South 219 252 12,600 -2,418 Descending Houston Center
Sun 12:07:48 PM 30.3331 -96.2978 165° South 207 238 10,900 -2,313 Descending Houston Center
Sun 12:08:49 PM 30.2789 -96.2772 162° South 191 220 8,900 -1,328 Descending Houston Center
Sun 12:09:50 PM 30.2250 -96.2617 166° South 202 232 8,200 -593 Descending Houston Center
Sun 12:10:20 PM 30.2003 -96.2514 160° South 197 227 8,000 -587 Descending Houston Center
Sun 12:11:22 PM 30.1472 -96.2344 165° South 196 226 7,300 -532 Descending Houston Center
Sun 12:12:24 PM 30.1028 -96.2175 162° South 190 219 6,900 -484 Descending Houston Center
Sun 12:13:26 PM 30.0447 -96.1983 164° South 181 208 6,300 -581 Descending Houston Center
Sun 12:14:28 PM 29.9978 -96.1822 163° South 177 204 5,700 -532 Descending Houston Center
Sun 12:15:30 PM 29.9494 -96.1658 164° South 179 206 5,200 -484 Descending Houston Center
Sun 12:16:32 PM 29.9047 -96.1447 158° South 175 201 4,700 -484 Descending Houston Center
Sun 12:17:34 PM 29.8681 -96.1069 138° Southeast 179 206 4,200 -339 Descending Houston Center
Sun 12:18:36 PM 29.8411 -96.0594 123° Southeast 178 205 4,000 -145 Descending Houston Center
Sun 12:19:38 PM 29.8078 -96.0086 127° Southeast 180 207 3,900 -242 Descending Houston Center
Sun 12:20:40 PM 29.7775 -95.9617 127° Southeast 182 209 3,500 -435 Descending Houston Center
Sun 12:21:42 PM 29.7575 -95.9086 113° Southeast 184 212 3,000 -240 Descending Houston Center
Sun 12:22:45 PM 29.7519 -95.8367 95° East 187 215 3,000  Level Houston Center
Sun 12:23:47 PM 29.7469 -95.7786 96° East 184 212 3,000  Level Houston Center
Sun 12:24:49 PM 29.7406 -95.7192 97° East 186 214 3,000  Level Houston Center
Sun 12:25:51 PM 29.7344 -95.6592 97° East 189 217 3,000  Level Houston Center
Sun 12:26:53 PM 29.7289 -95.6011 96° East 185 213 3,000  Level Houston Center
Sun 12:27:55 PM 29.7256 -95.5458 94° East 178 205 3,000 -267 Level Houston Center
Sun 12:29:08 PM 29.7339 -95.4697 83° East 176 203 2,400 -484 Descending Houston Center
Sun 12:29:59 PM 29.7272 -95.4272 100° East 171 197 2,000 -212 Descending Houston Center
Sun 12:31:01 PM 29.7108 -95.3778 111° Southeast 167 192 2,000 -339 Level Houston Center
Sun 12:32:03 PM 29.6881 -95.3294 118° Southeast 169 194 1,300 -774 Descending Houston Center
Sun 12:33:05 PM 29.6583 -95.2950 135° Southeast 162 186 400 -528 Descending Houston Center
Sun 12:34:08 PM 29.6333 -95.2639 133° Southeast 157 181 200 -190 Descending Houston Center

Login

Don't have an account? Register now (free) for customized features, flight alerts, and more!